createdAt,value
2019-05-02T00:02:08.899Z,13
2019-05-02T00:12:08.111Z,13
2019-05-02T00:22:07.330Z,12.5
2019-05-02T00:32:06.596Z,13.2
2019-05-02T00:42:12.287Z,13.1
2019-05-02T00:52:04.975Z,12.6
2019-05-02T01:02:05.289Z,12.8
2019-05-02T01:12:08.262Z,12.5
2019-05-02T01:22:02.672Z,12.9
2019-05-02T01:32:01.889Z,12.6
2019-05-02T01:42:04.074Z,12.5
2019-05-02T01:52:00.277Z,12.8
2019-05-02T02:01:59.484Z,13.2
2019-05-02T02:11:58.700Z,13
2019-05-02T02:22:02.659Z,12.5
2019-05-02T02:31:57.143Z,12.5
2019-05-02T02:41:56.352Z,12.6
2019-05-02T02:51:57.780Z,13.1
2019-05-02T03:01:54.779Z,13.1
2019-05-02T03:11:56.132Z,12.5
2019-05-02T03:21:54.190Z,13.2
2019-05-02T03:32:11.343Z,12.9
2019-05-02T03:41:55.380Z,13.1
2019-05-02T03:51:55.739Z,12.6
2019-05-02T04:01:50.074Z,12.6
2019-05-02T04:11:49.288Z,12.6
2019-05-02T04:21:52.572Z,13.7
2019-05-02T04:31:47.720Z,14.4
2019-05-02T04:41:48.508Z,13.6
2019-05-02T04:51:48.208Z,14.7
2019-05-02T05:01:49.703Z,13.9
2019-05-02T05:11:44.579Z,14.4
2019-05-02T05:21:43.791Z,14.5
2019-05-02T05:31:43.009Z,14
2019-05-02T05:41:42.569Z,14.3
2019-05-02T05:51:41.432Z,14
2019-05-02T06:01:40.646Z,14.1
2019-05-02T06:11:39.864Z,14.1
2019-05-02T06:21:39.917Z,14.3
2019-05-02T06:31:42.924Z,14.7
2019-05-02T06:41:37.497Z,14.4
2019-05-02T06:51:36.710Z,13.9
2019-05-02T07:01:35.923Z,14.7
2019-05-02T07:11:38.732Z,13.8
2019-05-02T07:21:34.357Z,14.2
2019-05-02T07:31:33.568Z,14.7
2019-05-02T07:41:32.784Z,14.6
2019-05-02T07:51:32.004Z,13.9
2019-05-02T08:01:31.220Z,14.4
2019-05-02T08:11:32.160Z,14.8
2019-05-02T08:21:32.447Z,13.8
2019-05-02T08:31:30.180Z,14
2019-05-02T08:41:28.066Z,14
2019-05-02T08:51:27.277Z,14.1
2019-05-02T09:01:34.801Z,14.6
2019-05-02T09:11:25.712Z,14.5
2019-05-02T09:21:26.592Z,14.4
2019-05-02T09:31:24.134Z,14.2
2019-05-02T09:41:26.778Z,13.8
2019-05-02T09:51:22.560Z,14.3
2019-05-02T10:01:22.322Z,14.7
2019-05-02T10:11:22.341Z,14.1
2019-05-02T10:21:20.196Z,14.2
2019-05-02T10:31:19.417Z,13.8
2019-05-02T10:41:18.633Z,14.3
2019-05-02T10:51:17.841Z,14.4
2019-05-02T11:01:17.056Z,14
2019-05-02T11:11:16.276Z,14.4
2019-05-02T11:21:15.538Z,14.4
2019-05-02T11:31:14.699Z,14.7
2019-05-02T11:41:13.915Z,14.4
2019-05-02T11:51:16.386Z,14.7
2019-05-02T12:01:12.589Z,14.4
2019-05-02T12:11:13.815Z,13.9
2019-05-02T12:21:11.893Z,13.8
2019-05-02T12:31:13.040Z,14.7
2019-05-02T12:41:19.439Z,13.8
2019-05-02T12:51:08.416Z,14.4
2019-05-02T13:01:07.622Z,14.3
2019-05-02T13:11:07.018Z,14.1
2019-05-02T13:21:07.971Z,14.4
2019-05-02T13:31:05.262Z,13.6
2019-05-02T13:41:04.480Z,14.6
2019-05-02T13:51:04.083Z,14.6
2019-05-02T14:01:03.412Z,14.5
2019-05-02T14:11:02.114Z,13.8
2019-05-02T14:21:02.746Z,14.1
2019-05-02T14:31:02.157Z,13.5
2019-05-02T14:40:59.792Z,13.1
2019-05-02T14:50:58.955Z,13.8
2019-05-02T15:00:58.172Z,14.5
2019-05-02T15:10:57.378Z,13.9
2019-05-02T15:20:56.597Z,13.3
2019-05-02T15:30:55.813Z,13.2
2019-05-02T15:40:59.106Z,12.9
2019-05-02T15:50:55.189Z,13.3
2019-05-02T16:00:56.427Z,13
2019-05-02T16:10:53.593Z,13.1
2019-05-02T16:21:04.028Z,13
2019-05-02T16:30:52.539Z,12.8
2019-05-02T16:40:52.193Z,13.1
2019-05-02T16:50:49.524Z,12.9
2019-05-02T17:00:48.746Z,12.5
2019-05-02T17:10:53.374Z,12.7
2019-05-02T17:20:52.305Z,12.7
2019-05-02T17:30:46.376Z,13.1
2019-05-02T17:40:45.600Z,12.9
2019-05-02T17:50:49.290Z,12.8
2019-05-02T18:00:47.335Z,12.9
2019-05-02T18:10:43.244Z,12.7
2019-05-02T18:20:46.308Z,12.6
2019-05-02T18:30:41.791Z,13.2
2019-05-02T18:40:42.533Z,13.1
2019-05-02T18:50:42.415Z,13
2019-05-02T19:00:39.644Z,13.2
2019-05-02T19:10:42.354Z,12.4
2019-05-02T19:20:37.734Z,12.7
2019-05-02T19:30:36.997Z,13.2
2019-05-02T19:40:36.209Z,12.9
2019-05-02T19:50:40.488Z,13.3
2019-05-02T20:00:36.506Z,13.3
2019-05-02T20:10:33.806Z,12.4
2019-05-02T20:20:35.844Z,13.3
2019-05-02T20:30:32.231Z,12.9
2019-05-02T20:40:31.952Z,12.7
2019-05-02T20:50:31.796Z,12.6
2019-05-02T21:00:31.976Z,13.2
2019-05-02T21:10:29.085Z,13.2
2019-05-02T21:20:28.303Z,12.6
2019-05-02T21:30:27.517Z,13.1
2019-05-02T21:40:26.731Z,12.7
2019-05-02T21:50:25.944Z,13
2019-05-02T22:00:25.150Z,12.8
2019-05-02T22:10:24.371Z,13.2
2019-05-02T22:20:23.632Z,13
2019-05-02T22:30:22.789Z,13.1
2019-05-02T22:40:22.007Z,13.2
2019-05-02T22:50:21.985Z,12.5
2019-05-02T23:00:21.637Z,13.1
2019-05-02T23:10:19.645Z,13
2019-05-02T23:20:18.860Z,12.8
2019-05-02T23:30:18.073Z,13
2019-05-02T23:40:17.286Z,12.4
2019-05-02T23:50:16.499Z,12.5
